Time;durP1;ratioP1;P1;durP2;ratioP2;P2;SDS_P1;SDS_P2;PMS_P1;PMS_P2;Temp;Humidity;BMP_temperature;BMP_pressure;BME280_temperature;BME280_humidity;BME280_pressure;Samples;Min_cycle;Max_cycle;Signal;HPM_P1;HPM_P2
2021/04/01 00:01:06;;;;;;;35.40;27.07;;;;;;;;;;5100422;28;20417;-77
2021/04/01 00:03:32;;;;;;;41.63;29.73;;;;;;;;;;5093597;28;20409;-76
2021/04/01 00:05:58;;;;;;;38.53;27.20;;;;;;;;;;5093566;28;20651;-76
2021/04/01 00:08:24;;;;;;;41.07;28.50;;;;;;;;;;5093812;28;20899;-75
2021/04/01 00:10:50;;;;;;;38.63;28.20;;;;;;;;;;5094247;28;20436;-76
2021/04/01 00:13:16;;;;;;;41.87;29.17;;;;;;;;;;5096423;28;20423;-76
2021/04/01 00:15:42;;;;;;;40.05;27.30;;;;;;;;;;5104212;28;20464;-77
2021/04/01 00:18:09;;;;;;;39.78;27.65;;;;;;;;;;5098200;28;20175;-76
2021/04/01 00:20:35;;;;;;;40.63;29.20;;;;;;;;;;5096226;28;20182;-77
2021/04/01 00:23:00;;;;;;;41.40;28.00;;;;;;;;;;5093052;28;20410;-75
2021/04/01 00:25:26;;;;;;;37.60;27.00;;;;;;;;;;5093777;28;20426;-78
2021/04/01 00:27:52;;;;;;;41.10;28.63;;;;;;;;;;5093710;28;20746;-77
2021/04/01 00:30:19;;;;;;;39.37;28.97;;;;;;;;;;5094023;28;20402;-76
2021/04/01 00:32:46;;;;;;;38.95;29.13;;;;;;;;;;5093453;28;20484;-79
2021/04/01 00:35:12;;;;;;;43.65;29.85;;;;;;;;;;5104638;28;20282;-75
2021/04/01 00:37:38;;;;;;;48.38;31.25;;;;;;;;;;5095980;28;20171;-78
2021/04/01 00:40:05;;;;;;;41.20;30.13;;;;;;;;;;5096793;28;20174;-75
2021/04/01 00:42:32;;;;;;;42.05;29.67;;;;;;;;;;5099090;28;20814;-77
2021/04/01 00:44:59;;;;;;;38.83;29.00;;;;;;;;;;5120518;28;20262;-75
2021/04/01 00:47:25;;;;;;;39.25;29.23;;;;;;;;;;5103961;28;20182;-78
2021/04/01 00:49:51;;;;;;;44.20;31.27;;;;;;;;;;5100954;28;20579;-77
2021/04/01 00:52:24;;;;;;;45.77;30.23;;;;;;;;;;5101203;28;20489;-74
2021/04/01 00:54:50;;;;;;;41.10;29.27;;;;;;;;;;5101024;28;20460;-74
2021/04/01 00:57:16;;;;;;;41.27;30.33;;;;;;;;;;5104704;28;20191;-78
2021/04/01 00:59:42;;;;;;;42.63;28.87;;;;;;;;;;5099735;28;20421;-73
2021/04/01 01:02:08;;;;;;;42.65;29.92;;;;;;;;;;5122539;28;20412;-74
2021/04/01 01:04:34;;;;;;;42.57;29.57;;;;;;;;;;5111711;28;20636;-76
2021/04/01 01:07:01;;;;;;;40.10;29.00;;;;;;;;;;5088932;28;20417;-77
2021/04/01 01:09:27;;;;;;;42.00;29.83;;;;;;;;;;5101511;28;20416;-77
2021/04/01 01:11:53;;;;;;;43.23;30.93;;;;;;;;;;5094088;28;20488;-76
2021/04/01 01:14:19;;;;;;;49.93;33.77;;;;;;;;;;5093859;28;20773;-78
2021/04/01 01:16:45;;;;;;;45.20;33.43;;;;;;;;;;5093231;28;20461;-80
2021/04/01 01:19:11;;;;;;;44.27;33.20;;;;;;;;;;5106079;28;20409;-75
2021/04/01 01:21:38;;;;;;;45.25;33.28;;;;;;;;;;5110245;28;20424;-78
2021/04/01 01:24:10;;;;;;;48.10;35.10;;;;;;;;;;5096419;28;20178;-79
2021/04/01 01:26:36;;;;;;;45.55;33.20;;;;;;;;;;5103065;28;20503;-78
2021/04/01 01:29:02;;;;;;;46.30;34.67;;;;;;;;;;5098637;28;20261;-76
2021/04/01 01:31:28;;;;;;;47.47;34.43;;;;;;;;;;5097155;28;20424;-79
2021/04/01 01:33:56;;;;;;;45.80;32.83;;;;;;;;;;5096160;28;20463;-77
2021/04/01 01:36:22;;;;;;;47.57;35.20;;;;;;;;;;5117226;28;20509;-77
2021/04/01 01:38:48;;;;;;;49.27;35.13;;;;;;;;;;5104947;28;20890;-74
2021/04/01 01:41:14;;;;;;;47.93;33.30;;;;;;;;;;5117322;27;20404;-78
2021/04/01 01:43:40;;;;;;;48.45;35.78;;;;;;;;;;5100255;28;20415;-80
2021/04/01 01:46:06;;;;;;;47.83;35.50;;;;;;;;;;5097439;28;20222;-78
2021/04/01 01:48:32;;;;;;;48.50;34.03;;;;;;;;;;5109882;28;20477;-77
2021/04/01 01:50:59;;;;;;;49.93;36.10;;;;;;;;;;5117212;28;20762;-77
2021/04/01 01:53:25;;;;;;;45.80;35.43;;;;;;;;;;5114131;28;20511;-76
2021/04/01 01:55:51;;;;;;;45.35;33.35;;;;;;;;;;5117013;28;20463;-74
2021/04/01 01:58:18;;;;;;;47.00;33.70;;;;;;;;;;5101935;28;20227;-75
2021/04/01 02:00:46;;;;;;;48.80;35.28;;;;;;;;;;5103543;28;20431;-77
2021/04/01 02:03:12;;;;;;;44.00;32.75;;;;;;;;;;5099926;28;20178;-76
2021/04/01 02:05:39;;;;;;;46.20;33.42;;;;;;;;;;5095337;28;20247;-78
2021/04/01 02:08:05;;;;;;;46.17;34.00;;;;;;;;;;5112332;28;20182;-77
2021/04/01 02:10:33;;;;;;;47.97;35.22;;;;;;;;;;5107930;28;20258;-77
2021/04/01 02:12:59;;;;;;;45.88;33.72;;;;;;;;;;5095843;28;20704;-75
2021/04/01 02:15:27;;;;;;;46.20;34.15;;;;;;;;;;5099024;28;20324;-77
2021/04/01 02:18:01;;;;;;;45.57;34.30;;;;;;;;;;5094889;28;20175;-77
2021/04/01 02:20:27;;;;;;;46.43;34.90;;;;;;;;;;5109537;28;20406;-79
2021/04/01 02:22:53;;;;;;;43.23;33.17;;;;;;;;;;5110367;28;20418;-79
2021/04/01 02:25:19;;;;;;;54.37;33.93;;;;;;;;;;5096577;28;20478;-77
2021/04/01 02:27:45;;;;;;;47.83;33.50;;;;;;;;;;5095259;28;20560;-76
2021/04/01 02:30:12;;;;;;;43.67;31.63;;;;;;;;;;5095636;28;20425;-78
2021/04/01 02:32:38;;;;;;;50.72;33.55;;;;;;;;;;5097834;28;20819;-77
2021/04/01 02:35:04;;;;;;;48.27;33.87;;;;;;;;;;5099314;28;20203;-76
2021/04/01 02:37:30;;;;;;;45.25;32.45;;;;;;;;;;5116106;28;20405;-76
2021/04/01 02:39:56;;;;;;;43.03;31.20;;;;;;;;;;5116243;27;20493;-73
2021/04/01 02:42:22;;;;;;;53.93;34.90;;;;;;;;;;5102517;28;20422;-75
2021/04/01 02:44:48;;;;;;;45.53;33.88;;;;;;;;;;5094716;28;20457;-78
2021/04/01 02:47:14;;;;;;;45.77;33.80;;;;;;;;;;5116376;27;20174;-77
2021/04/01 02:49:40;;;;;;;48.30;33.57;;;;;;;;;;5100837;28;20433;-74
2021/04/01 02:52:06;;;;;;;48.33;35.17;;;;;;;;;;5095424;28;20454;-78
2021/04/01 02:54:32;;;;;;;48.70;35.17;;;;;;;;;;5094310;28;20458;-77
2021/04/01 02:56:58;;;;;;;44.13;32.80;;;;;;;;;;5094770;28;20628;-76
2021/04/01 02:59:24;;;;;;;43.90;32.33;;;;;;;;;;5106394;28;20745;-77
2021/04/01 03:01:51;;;;;;;46.77;33.57;;;;;;;;;;5095104;28;20180;-76
2021/04/01 03:04:17;;;;;;;46.10;34.63;;;;;;;;;;5094676;28;20433;-75
2021/04/01 03:06:43;;;;;;;40.60;32.23;;;;;;;;;;5102442;28;20199;-76
2021/04/01 03:09:09;;;;;;;45.80;33.03;;;;;;;;;;5115376;28;20769;-78
2021/04/01 03:11:35;;;;;;;44.17;33.03;;;;;;;;;;5107263;28;20774;-77
2021/04/01 03:14:02;;;;;;;45.42;32.13;;;;;;;;;;5094234;28;20422;-75
2021/04/01 03:16:28;;;;;;;46.88;33.50;;;;;;;;;;5097974;28;20191;-78
2021/04/01 03:18:54;;;;;;;43.50;32.90;;;;;;;;;;5106538;28;20182;-78
2021/04/01 03:21:20;;;;;;;47.13;34.00;;;;;;;;;;5106401;28;20416;-76
2021/04/01 03:23:46;;;;;;;47.30;33.50;;;;;;;;;;5107587;28;20410;-78
2021/04/01 03:26:12;;;;;;;48.27;32.90;;;;;;;;;;5094694;28;20429;-78
2021/04/01 03:28:38;;;;;;;45.33;33.93;;;;;;;;;;5094110;28;20887;-76
2021/04/01 03:31:04;;;;;;;43.80;33.43;;;;;;;;;;5092714;28;20467;-75
2021/04/01 03:33:30;;;;;;;49.50;35.55;;;;;;;;;;5094681;28;20428;-75
2021/04/01 03:35:57;;;;;;;45.95;33.13;;;;;;;;;;5093938;28;20242;-76
2021/04/01 03:38:23;;;;;;;47.38;35.53;;;;;;;;;;5094801;28;20167;-76
2021/04/01 03:40:52;;;;;;;49.30;34.70;;;;;;;;;;5094541;28;20171;-76
2021/04/01 03:43:18;;;;;;;44.83;33.25;;;;;;;;;;5100321;28;20552;-78
2021/04/01 03:45:44;;;;;;;46.17;33.10;;;;;;;;;;5094282;28;20609;-77
2021/04/01 03:48:10;;;;;;;47.70;34.45;;;;;;;;;;5102570;28;20524;-74
2021/04/01 03:50:36;;;;;;;44.83;32.50;;;;;;;;;;5111550;28;20269;-77
2021/04/01 03:53:02;;;;;;;46.37;33.17;;;;;;;;;;5101922;27;20600;-76
2021/04/01 04:00:41;;;;;;;48.90;34.45;;;;;;;;;;5093943;28;20431;-78
2021/04/01 04:03:21;;;;;;;48.08;34.22;;;;;;;;;;5092492;28;20682;-73
2021/04/01 04:06:12;;;;;;;50.22;35.50;;;;;;;;;;5093480;28;20613;-75
2021/04/01 04:16:09;;;;;;;50.30;36.33;;;;;;;;;;5107091;28;20309;-75
2021/04/01 04:18:37;;;;;;;52.87;37.63;;;;;;;;;;5114565;28;20409;-77
2021/04/01 04:21:03;;;;;;;56.35;36.70;;;;;;;;;;5097998;28;20421;-79
2021/04/01 04:23:29;;;;;;;57.03;37.42;;;;;;;;;;5093528;28;20233;-74
2021/04/01 04:25:56;;;;;;;54.70;35.08;;;;;;;;;;5106788;28;20213;-76
2021/04/01 04:28:32;;;;;;;47.53;32.67;;;;;;;;;;5105168;28;20179;-78
2021/04/01 04:30:58;;;;;;;44.22;31.52;;;;;;;;;;5089374;28;20168;-74
2021/04/01 04:33:24;;;;;;;55.25;37.17;;;;;;;;;;5101945;28;20258;-77
2021/04/01 04:35:50;;;;;;;55.33;38.63;;;;;;;;;;5094298;28;20275;-76
2021/04/01 04:38:16;;;;;;;56.95;39.53;;;;;;;;;;5096332;28;20994;-75
2021/04/01 04:40:42;;;;;;;59.60;40.00;;;;;;;;;;5094221;28;20183;-75
2021/04/01 04:43:08;;;;;;;51.92;36.78;;;;;;;;;;5106119;28;20417;-77
2021/04/01 04:45:37;;;;;;;55.85;37.35;;;;;;;;;;5107052;28;20198;-77
2021/04/01 04:48:03;;;;;;;55.88;38.85;;;;;;;;;;5107703;28;20179;-76
2021/04/01 04:50:29;;;;;;;56.90;38.13;;;;;;;;;;5093274;28;20175;-79
2021/04/01 04:52:55;;;;;;;58.10;38.40;;;;;;;;;;5107735;28;20256;-78
2021/04/01 04:55:21;;;;;;;59.25;39.90;;;;;;;;;;5093975;28;20834;-76
2021/04/01 05:05:52;;;;;;;63.13;41.33;;;;;;;;;;5108098;28;20360;-77
2021/04/01 05:08:18;;;;;;;65.57;39.83;;;;;;;;;;5097508;28;20602;-78
2021/04/01 05:10:44;;;;;;;63.33;41.15;;;;;;;;;;5097120;28;20771;-76
2021/04/01 05:13:11;;;;;;;57.73;38.87;;;;;;;;;;5099040;28;20168;-78
2021/04/01 05:15:40;;;;;;;57.65;38.97;;;;;;;;;;5095820;28;20476;-76
2021/04/01 05:18:20;;;;;;;63.03;42.13;;;;;;;;;;5096944;28;20179;-76
2021/04/01 05:20:51;;;;;;;61.00;40.25;;;;;;;;;;5084531;28;20171;-76
2021/04/01 05:25:43;;;;;;;62.60;41.67;;;;;;;;;;5105416;28;20237;-75
2021/04/01 05:28:24;;;;;;;60.00;40.43;;;;;;;;;;5117371;28;20211;-77
2021/04/01 05:30:51;;;;;;;64.78;40.63;;;;;;;;;;5098211;28;20409;-77
2021/04/01 05:33:17;;;;;;;58.05;40.97;;;;;;;;;;5096579;28;20184;-77
2021/04/01 05:35:43;;;;;;;56.03;39.72;;;;;;;;;;5107056;28;20647;-76
2021/04/01 05:38:10;;;;;;;60.78;40.90;;;;;;;;;;5116804;27;20627;-76
2021/04/01 05:40:36;;;;;;;60.33;40.88;;;;;;;;;;5117087;28;20542;-77
2021/04/01 05:43:06;;;;;;;62.55;41.58;;;;;;;;;;5116469;28;20170;-77
2021/04/01 05:45:40;;;;;;;62.65;41.70;;;;;;;;;;5115300;28;20690;-77
2021/04/01 05:48:11;;;;;;;62.13;40.72;;;;;;;;;;5097902;28;20199;-77
2021/04/01 05:51:15;;;;;;;62.83;41.95;;;;;;;;;;5109965;28;20182;-77
2021/04/01 05:57:01;;;;;;;60.42;40.70;;;;;;;;;;5096047;28;20202;-76
2021/04/01 06:02:11;;;;;;;54.63;34.92;;;;;;;;;;5096527;28;20232;-76
2021/04/01 06:04:41;;;;;;;62.17;39.95;;;;;;;;;;5095598;28;20270;-76
2021/04/01 06:07:17;;;;;;;63.80;41.08;;;;;;;;;;5096046;28;20175;-76
2021/04/01 06:09:48;;;;;;;66.28;42.50;;;;;;;;;;5096404;28;20210;-76
2021/04/01 06:12:16;;;;;;;59.35;40.90;;;;;;;;;;5096125;28;20719;-76
2021/04/01 06:14:48;;;;;;;58.13;37.33;;;;;;;;;;5095454;28;20185;-77
2021/04/01 06:17:17;;;;;;;63.03;41.40;;;;;;;;;;5116882;28;20660;-77
2021/04/01 06:19:47;;;;;;;64.63;41.33;;;;;;;;;;5116452;28;20171;-78
2021/04/01 06:22:13;;;;;;;63.88;40.30;;;;;;;;;;5116837;28;20525;-77
2021/04/01 06:24:39;;;;;;;66.70;41.75;;;;;;;;;;5115728;28;20202;-77
2021/04/01 06:29:38;;;;;;;62.83;40.60;;;;;;;;;;5108000;28;20759;-77
2021/04/01 06:32:05;;;;;;;67.55;42.03;;;;;;;;;;5095590;28;20186;-76
2021/04/01 06:34:33;;;;;;;69.07;42.35;;;;;;;;;;5095464;28;20187;-76
2021/04/01 06:36:59;;;;;;;65.18;42.90;;;;;;;;;;5095662;28;20207;-77
2021/04/01 06:39:25;;;;;;;66.13;44.67;;;;;;;;;;5095518;28;20179;-76
2021/04/01 06:42:04;;;;;;;61.40;42.85;;;;;;;;;;5095479;28;20409;-77
2021/04/01 06:44:44;;;;;;;61.20;41.85;;;;;;;;;;5094829;28;20175;-75
2021/04/01 06:47:13;;;;;;;67.60;44.33;;;;;;;;;;5095314;28;20184;-77
2021/04/01 06:50:01;;;;;;;69.05;45.80;;;;;;;;;;5095363;28;20542;-78
2021/04/01 06:52:34;;;;;;;66.55;43.00;;;;;;;;;;5095053;28;20267;-78
2021/04/01 06:55:19;;;;;;;69.05;44.50;;;;;;;;;;5095148;28;20201;-77
2021/04/01 07:03:01;;;;;;;68.32;45.55;;;;;;;;;;5094695;28;20179;-75
2021/04/01 07:05:37;;;;;;;70.78;45.88;;;;;;;;;;5094560;28;20219;-76
2021/04/01 07:08:07;;;;;;;70.65;44.97;;;;;;;;;;5095266;28;20187;-75
2021/04/01 07:11:00;;;;;;;68.88;45.40;;;;;;;;;;5094786;28;20183;-77
2021/04/01 07:13:35;;;;;;;78.72;48.38;;;;;;;;;;5094582;28;20179;-76
2021/04/01 07:16:13;;;;;;;73.68;47.42;;;;;;;;;;5105115;28;20225;-76
2021/04/01 07:44:44;;;;;;;78.57;50.20;;;;;;;;;;5094544;28;20249;-78
2021/04/01 07:47:17;;;;;;;74.85;48.00;;;;;;;;;;5094293;28;20320;-77
2021/04/01 07:49:45;;;;;;;69.05;46.90;;;;;;;;;;5092860;28;20620;-77
2021/04/01 07:52:13;;;;;;;70.10;46.38;;;;;;;;;;5094388;28;20186;-76
2021/04/01 07:54:51;;;;;;;71.15;45.78;;;;;;;;;;5093274;28;20171;-76
2021/04/01 08:05:24;;;;;;;70.25;45.70;;;;;;;;;;5097585;28;20278;-76
2021/04/01 08:07:57;;;;;;;66.50;46.40;;;;;;;;;;5114045;27;20174;-76
2021/04/01 08:10:25;;;;;;;67.47;47.78;;;;;;;;;;5114241;28;20170;-76
2021/04/01 08:12:55;;;;;;;74.53;47.15;;;;;;;;;;5113896;28;20198;-77
2021/04/01 08:15:25;;;;;;;71.78;49.60;;;;;;;;;;5101959;28;20559;-77
2021/04/01 08:17:57;;;;;;;68.85;47.03;;;;;;;;;;5114020;27;20165;-77
2021/04/01 08:20:29;;;;;;;64.55;44.95;;;;;;;;;;5114016;28;20174;-78
2021/04/01 08:23:07;;;;;;;64.45;45.03;;;;;;;;;;5113770;28;20189;-78
2021/04/01 08:25:40;;;;;;;64.38;44.90;;;;;;;;;;5113881;28;20200;-77
2021/04/01 08:28:30;;;;;;;65.13;45.42;;;;;;;;;;5113897;28;20564;-77
2021/04/01 08:36:27;;;;;;;48.42;34.65;;;;;;;;;;5093183;28;20264;-77
2021/04/01 08:38:53;;;;;;;42.28;26.05;;;;;;;;;;5093397;28;20582;-76
2021/04/01 08:41:35;;;;;;;37.25;26.23;;;;;;;;;;5091711;28;20258;-75
2021/04/01 08:44:07;;;;;;;40.28;27.88;;;;;;;;;;5092913;28;20167;-76
2021/04/01 08:46:52;;;;;;;36.50;26.98;;;;;;;;;;5093236;28;20191;-76
2021/04/01 08:49:18;;;;;;;40.92;27.48;;;;;;;;;;5093399;28;20176;-77
2021/04/01 08:52:07;;;;;;;39.07;28.20;;;;;;;;;;5091583;28;20186;-77
2021/04/01 08:54:36;;;;;;;34.35;26.35;;;;;;;;;;5087061;28;20432;-77
2021/04/01 08:57:10;;;;;;;37.20;24.95;;;;;;;;;;5108925;28;20202;-77
2021/04/01 08:59:36;;;;;;;32.08;23.33;;;;;;;;;;5113706;28;20515;-77
2021/04/01 09:02:02;;;;;;;32.57;24.70;;;;;;;;;;5113246;28;20292;-77
2021/04/01 09:04:29;;;;;;;34.20;24.30;;;;;;;;;;5113074;28;20431;-77
2021/04/01 09:07:10;;;;;;;34.83;24.80;;;;;;;;;;5096608;28;20270;-75
2021/04/01 09:09:38;;;;;;;27.40;19.73;;;;;;;;;;5093010;28;20171;-76
2021/04/01 09:12:21;;;;;;;25.63;19.70;;;;;;;;;;5093081;28;20183;-77
2021/04/01 09:14:56;;;;;;;26.80;20.00;;;;;;;;;;5093137;28;20286;-76
2021/04/01 09:17:33;;;;;;;25.48;19.58;;;;;;;;;;5113280;28;20200;-77
2021/04/01 09:19:59;;;;;;;24.42;19.33;;;;;;;;;;5113258;28;20253;-76
2021/04/01 09:22:27;;;;;;;23.35;19.02;;;;;;;;;;5113393;28;20163;-77
2021/04/01 09:24:57;;;;;;;24.52;18.70;;;;;;;;;;5113077;28;20195;-76
2021/04/01 09:27:23;;;;;;;20.85;16.45;;;;;;;;;;5113287;28;20179;-77
2021/04/01 09:29:49;;;;;;;22.25;16.77;;;;;;;;;;5102466;28;20221;-77
2021/04/01 09:32:16;;;;;;;20.52;15.80;;;;;;;;;;5092730;28;20203;-78
2021/04/01 09:34:48;;;;;;;23.67;17.07;;;;;;;;;;5092250;28;20228;-77
2021/04/01 09:37:16;;;;;;;19.97;15.70;;;;;;;;;;5092736;28;20593;-77
2021/04/01 09:39:43;;;;;;;20.97;16.53;;;;;;;;;;5092361;28;20402;-76
2021/04/01 09:42:13;;;;;;;19.87;14.10;;;;;;;;;;5095119;28;20898;-77
2021/04/01 09:44:52;;;;;;;18.27;14.40;;;;;;;;;;5095987;28;20441;-77
2021/04/01 09:47:23;;;;;;;17.60;13.37;;;;;;;;;;5096169;28;20413;-75
2021/04/01 09:49:55;;;;;;;16.13;13.83;;;;;;;;;;5096703;28;20402;-78
2021/04/01 09:52:25;;;;;;;18.30;14.50;;;;;;;;;;5096826;28;20454;-77
2021/04/01 09:54:56;;;;;;;15.33;12.77;;;;;;;;;;5096116;28;20848;-77
2021/04/01 09:57:26;;;;;;;13.90;12.50;;;;;;;;;;5096044;28;20470;-76
2021/04/01 09:59:54;;;;;;;14.73;12.60;;;;;;;;;;5096353;28;20886;-77
2021/04/01 10:02:25;;;;;;;14.20;11.70;;;;;;;;;;5094837;28;20437;-77
2021/04/01 10:04:54;;;;;;;14.93;12.33;;;;;;;;;;5095624;28;20564;-77
2021/04/01 10:07:21;;;;;;;11.60;9.80;;;;;;;;;;5094773;28;20420;-76
2021/04/01 10:09:50;;;;;;;10.60;8.60;;;;;;;;;;5096266;28;20502;-77
2021/04/01 10:12:20;;;;;;;11.63;8.50;;;;;;;;;;5095919;28;20409;-78
2021/04/01 10:14:50;;;;;;;12.17;7.43;;;;;;;;;;5095353;28;20425;-76
2021/04/01 10:17:17;;;;;;;9.90;6.60;;;;;;;;;;5096107;28;20445;-76
2021/04/01 10:19:48;;;;;;;9.37;6.40;;;;;;;;;;5095992;28;20409;-76
2021/04/01 10:22:23;;;;;;;8.18;6.65;;;;;;;;;;5095897;28;20405;-77
2021/04/01 10:25:02;;;;;;;10.48;5.85;;;;;;;;;;5098362;28;20247;-77
2021/04/01 10:27:40;;;;;;;8.35;6.30;;;;;;;;;;5114946;28;20227;-75
2021/04/01 10:30:08;;;;;;;7.70;6.10;;;;;;;;;;5103426;28;20620;-75
2021/04/01 10:32:38;;;;;;;9.23;6.50;;;;;;;;;;5095337;28;20199;-79
2021/04/01 10:35:05;;;;;;;13.35;7.40;;;;;;;;;;5094971;28;20196;-76
2021/04/01 10:37:31;;;;;;;10.52;7.72;;;;;;;;;;5093903;28;20268;-76
2021/04/01 10:40:00;;;;;;;12.23;8.30;;;;;;;;;;5095785;28;20174;-77
2021/04/01 10:42:27;;;;;;;11.30;8.18;;;;;;;;;;5095796;28;20579;-76
2021/04/01 10:45:12;;;;;;;8.18;6.63;;;;;;;;;;5095279;28;20603;-77
2021/04/01 10:47:57;;;;;;;11.00;7.32;;;;;;;;;;5095563;28;20176;-76
2021/04/01 10:50:23;;;;;;;10.25;7.38;;;;;;;;;;5093852;28;20175;-75
2021/04/01 10:52:49;;;;;;;9.98;7.10;;;;;;;;;;5093722;28;20186;-77
2021/04/01 10:55:15;;;;;;;9.13;6.77;;;;;;;;;;5095301;28;20195;-76
2021/04/01 10:57:42;;;;;;;9.15;6.20;;;;;;;;;;5095234;28;20532;-77
2021/04/01 11:00:11;;;;;;;10.77;7.82;;;;;;;;;;5095504;28;20182;-79
2021/04/01 11:02:39;;;;;;;8.35;6.50;;;;;;;;;;5095096;28;20573;-79
2021/04/01 11:05:08;;;;;;;9.70;6.10;;;;;;;;;;5094214;28;20237;-78
2021/04/01 11:07:42;;;;;;;7.70;6.22;;;;;;;;;;5095168;28;20187;-76
2021/04/01 11:10:09;;;;;;;8.30;6.35;;;;;;;;;;5095125;28;20183;-77
2021/04/01 11:12:35;;;;;;;8.38;6.82;;;;;;;;;;5094730;28;20655;-76
2021/04/01 11:15:02;;;;;;;8.50;6.53;;;;;;;;;;5097912;28;20255;-76
2021/04/01 11:17:30;;;;;;;9.73;6.13;;;;;;;;;;5115139;28;20194;-75
2021/04/01 11:19:58;;;;;;;6.22;5.57;;;;;;;;;;5114932;28;20226;-74
2021/04/01 11:22:24;;;;;;;7.10;5.50;;;;;;;;;;5115093;28;20175;-75
2021/04/01 11:24:50;;;;;;;6.60;4.60;;;;;;;;;;5114455;28;20202;-75
2021/04/01 11:27:18;;;;;;;6.45;4.70;;;;;;;;;;5114947;28;20390;-76
2021/04/01 11:29:52;;;;;;;5.13;4.45;;;;;;;;;;5105082;28;20164;-76
2021/04/01 11:32:20;;;;;;;7.50;5.10;;;;;;;;;;5094417;28;20270;-77
2021/04/01 11:34:47;;;;;;;5.95;4.60;;;;;;;;;;5093887;28;20230;-77
2021/04/01 11:37:17;;;;;;;6.40;4.60;;;;;;;;;;5094452;28;20203;-78
2021/04/01 11:39:44;;;;;;;4.43;3.97;;;;;;;;;;5094564;28;20190;-78
2021/04/01 11:42:11;;;;;;;6.43;4.28;;;;;;;;;;5092976;28;20176;-78
2021/04/01 11:44:37;;;;;;;4.38;3.97;;;;;;;;;;5093612;28;20179;-78
2021/04/01 11:47:12;;;;;;;4.90;3.90;;;;;;;;;;5094585;28;20222;-76
2021/04/01 11:49:38;;;;;;;4.38;3.60;;;;;;;;;;5094003;28;20227;-77
2021/04/01 11:52:08;;;;;;;6.18;3.72;;;;;;;;;;5094182;28;20175;-77
2021/04/01 11:54:34;;;;;;;4.10;3.73;;;;;;;;;;5092173;28;20175;-77
2021/04/01 11:57:00;;;;;;;4.30;3.77;;;;;;;;;;5093832;28;20605;-76
2021/04/01 11:59:35;;;;;;;3.87;3.57;;;;;;;;;;5093699;28;20493;-78
2021/04/01 12:02:06;;;;;;;3.17;2.87;;;;;;;;;;5094203;28;20426;-77
2021/04/01 12:04:35;;;;;;;3.03;2.73;;;;;;;;;;5093047;28;20440;-77
2021/04/01 12:07:04;;;;;;;3.73;3.30;;;;;;;;;;5094263;28;20409;-78
2021/04/01 12:09:30;;;;;;;3.70;3.30;;;;;;;;;;5093656;28;20417;-77
2021/04/01 12:11:56;;;;;;;4.57;4.17;;;;;;;;;;5093688;28;20897;-77
2021/04/01 12:14:31;;;;;;;4.00;3.60;;;;;;;;;;5093211;28;20418;-77
2021/04/01 12:17:03;;;;;;;5.87;3.90;;;;;;;;;;5093658;28;20470;-76
2021/04/01 12:19:29;;;;;;;5.10;4.60;;;;;;;;;;5093859;28;20413;-76
2021/04/01 12:21:55;;;;;;;4.40;4.00;;;;;;;;;;5093906;28;20766;-77
2021/04/01 12:24:21;;;;;;;3.73;3.43;;;;;;;;;;5093310;28;20419;-77
2021/04/01 12:26:48;;;;;;;3.67;3.23;;;;;;;;;;5113023;28;20446;-76
2021/04/01 12:29:14;;;;;;;4.40;3.30;;;;;;;;;;5108393;28;20410;-77
2021/04/01 12:31:42;;;;;;;4.30;3.40;;;;;;;;;;5093431;28;20431;-77
2021/04/01 12:34:12;;;;;;;4.20;3.80;;;;;;;;;;5093049;28;20430;-77
2021/04/01 12:36:39;;;;;;;5.63;3.30;;;;;;;;;;5091955;28;20496;-77
2021/04/01 12:39:06;;;;;;;3.33;2.80;;;;;;;;;;5093204;28;20408;-76
2021/04/01 12:41:33;;;;;;;3.43;3.13;;;;;;;;;;5093593;28;20407;-77
2021/04/01 12:43:59;;;;;;;3.93;3.50;;;;;;;;;;5091847;28;20452;-76
2021/04/01 12:46:45;;;;;;;3.83;3.08;;;;;;;;;;5093177;28;20429;-77
2021/04/01 12:49:14;;;;;;;3.42;3.13;;;;;;;;;;5093048;28;20178;-76
2021/04/01 12:51:47;;;;;;;3.00;2.60;;;;;;;;;;5093156;28;20167;-78
2021/04/01 12:54:16;;;;;;;2.85;2.55;;;;;;;;;;5092702;28;20237;-77
2021/04/01 12:56:50;;;;;;;3.30;2.97;;;;;;;;;;5093427;28;20222;-76
2021/04/01 12:59:24;;;;;;;3.63;2.80;;;;;;;;;;5093090;28;20170;-76
2021/04/01 13:01:53;;;;;;;2.95;2.65;;;;;;;;;;5091706;28;20238;-75
2021/04/01 13:04:22;;;;;;;3.30;2.53;;;;;;;;;;5092727;28;20195;-77
2021/04/01 13:11:48;;;;;;;3.50;2.72;;;;;;;;;;5113086;28;20178;-75
2021/04/01 13:14:14;;;;;;;3.45;2.50;;;;;;;;;;5103935;28;20233;-77
2021/04/01 13:16:40;;;;;;;2.40;2.20;;;;;;;;;;5111787;28;20197;-76
2021/04/01 13:19:07;;;;;;;2.55;2.35;;;;;;;;;;5117580;28;20247;-76
2021/04/01 13:22:10;;;;;;;2.90;2.30;;;;;;;;;;5117107;28;20167;-77
2021/04/01 13:26:52;;;;;;;3.20;2.90;;;;;;;;;;5117324;28;20174;-77
2021/04/01 13:29:20;;;;;;;4.50;2.80;;;;;;;;;;5109827;28;20418;-76
2021/04/01 13:31:53;;;;;;;3.25;2.70;;;;;;;;;;5096622;28;20321;-76
2021/04/01 13:39:33;;;;;;;4.00;2.30;;;;;;;;;;5096488;28;20548;-74
2021/04/01 13:42:18;;;;;;;3.30;2.60;;;;;;;;;;5096440;28;20179;-74
2021/04/01 13:44:51;;;;;;;4.38;2.40;;;;;;;;;;5096182;28;20167;-75
2021/04/01 13:47:19;;;;;;;3.17;2.22;;;;;;;;;;5096455;28;20236;-76
2021/04/01 13:49:46;;;;;;;2.63;2.10;;;;;;;;;;5096217;28;20638;-76
2021/04/01 13:52:21;;;;;;;3.30;2.05;;;;;;;;;;5096261;28;20179;-77
2021/04/01 13:57:43;;;;;;;2.72;2.00;;;;;;;;;;5096532;28;20215;-75
2021/04/01 14:11:00;;;;;;;3.55;2.35;;;;;;;;;;5096412;28;20186;-75
2021/04/01 14:13:28;;;;;;;5.97;2.30;;;;;;;;;;5095611;28;20183;-76
2021/04/01 14:15:54;;;;;;;2.35;2.10;;;;;;;;;;5105709;28;20532;-76
2021/04/01 14:18:20;;;;;;;3.03;2.00;;;;;;;;;;5116840;28;20174;-75
2021/04/01 14:20:46;;;;;;;2.30;1.70;;;;;;;;;;5116426;28;20235;-77
2021/04/01 14:23:19;;;;;;;2.53;2.00;;;;;;;;;;5115865;28;20174;-74
2021/04/01 14:25:46;;;;;;;2.70;2.10;;;;;;;;;;5105439;28;20274;-76
2021/04/01 14:28:12;;;;;;;2.70;2.28;;;;;;;;;;5095559;28;20175;-76
2021/04/01 14:30:38;;;;;;;4.03;2.10;;;;;;;;;;5098944;28;20180;-76
2021/04/01 14:33:04;;;;;;;4.97;2.25;;;;;;;;;;5092769;28;20186;-77
2021/04/01 14:35:32;;;;;;;5.53;2.90;;;;;;;;;;5095511;28;20214;-78
2021/04/01 14:38:03;;;;;;;2.75;2.17;;;;;;;;;;5095603;28;20179;-78
2021/04/01 14:40:33;;;;;;;5.65;2.47;;;;;;;;;;5095458;28;20185;-78
2021/04/01 14:43:09;;;;;;;5.45;2.10;;;;;;;;;;5095270;28;20175;-77
2021/04/01 14:45:35;;;;;;;3.92;2.10;;;;;;;;;;5095319;28;20183;-76
2021/04/01 14:48:01;;;;;;;2.90;2.20;;;;;;;;;;5095339;28;20176;-77
2021/04/01 14:50:27;;;;;;;4.13;2.28;;;;;;;;;;5095153;28;20220;-75
2021/04/01 14:52:53;;;;;;;4.13;2.00;;;;;;;;;;5094815;28;20187;-77
2021/04/01 14:55:19;;;;;;;2.70;2.30;;;;;;;;;;5096082;28;20659;-77
2021/04/01 14:57:47;;;;;;;3.25;2.17;;;;;;;;;;5115867;28;20236;-78
2021/04/01 15:00:15;;;;;;;2.50;2.05;;;;;;;;;;5115617;28;20167;-76
2021/04/01 15:02:41;;;;;;;3.13;2.20;;;;;;;;;;5115350;28;20177;-76
2021/04/01 15:05:09;;;;;;;3.65;2.15;;;;;;;;;;5114775;28;20207;-76
2021/04/01 15:07:35;;;;;;;3.05;2.08;;;;;;;;;;5115508;28;20198;-76
2021/04/01 15:10:06;;;;;;;2.35;1.95;;;;;;;;;;5115215;28;20175;-78
2021/04/01 15:12:33;;;;;;;3.20;2.25;;;;;;;;;;5115260;28;20186;-74
2021/04/01 15:15:00;;;;;;;2.55;2.28;;;;;;;;;;5099363;28;20660;-76
2021/04/01 15:17:27;;;;;;;2.95;2.20;;;;;;;;;;5094867;28;20210;-77
2021/04/01 15:19:54;;;;;;;4.82;2.25;;;;;;;;;;5094636;28;20176;-77
2021/04/01 15:22:20;;;;;;;3.35;2.45;;;;;;;;;;5094450;28;20187;-78
2021/04/01 15:24:47;;;;;;;3.10;2.50;;;;;;;;;;5094325;28;20212;-77
2021/04/01 15:27:13;;;;;;;3.20;2.25;;;;;;;;;;5093221;28;20421;-75
2021/04/01 15:29:38;;;;;;;2.30;2.00;;;;;;;;;;5094446;28;20167;-76
2021/04/01 15:32:05;;;;;;;2.70;2.20;;;;;;;;;;5094318;28;20444;-75
2021/04/01 15:34:31;;;;;;;5.70;2.70;;;;;;;;;;5093862;28;20417;-75
2021/04/01 15:36:57;;;;;;;2.72;2.08;;;;;;;;;;5094063;28;20211;-78
2021/04/01 15:39:23;;;;;;;3.00;2.10;;;;;;;;;;5093818;28;20178;-77
2021/04/01 15:41:49;;;;;;;6.47;5.87;;;;;;;;;;5094171;28;20488;-77
2021/04/01 15:44:16;;;;;;;11.43;10.43;;;;;;;;;;5093855;28;20421;-75
2021/04/01 15:46:42;;;;;;;3.53;3.05;;;;;;;;;;5094184;28;20432;-77
2021/04/01 15:49:08;;;;;;;8.13;3.93;;;;;;;;;;5094102;28;20696;-77
2021/04/01 15:51:34;;;;;;;6.55;3.47;;;;;;;;;;5094362;28;20421;-77
2021/04/01 15:54:00;;;;;;;3.67;2.50;;;;;;;;;;5093844;28;20187;-76
2021/04/01 15:56:26;;;;;;;2.45;1.80;;;;;;;;;;5093898;28;20620;-78
2021/04/01 15:58:52;;;;;;;4.80;3.10;;;;;;;;;;5093995;28;20206;-77
2021/04/01 16:01:18;;;;;;;17.48;15.73;;;;;;;;;;5094426;28;20399;-78
2021/04/01 16:03:44;;;;;;;4.88;4.38;;;;;;;;;;5093390;28;20179;-78
2021/04/01 16:06:10;;;;;;;3.87;2.50;;;;;;;;;;5094064;28;20602;-76
2021/04/01 16:08:36;;;;;;;2.40;2.10;;;;;;;;;;5094006;28;20414;-76
2021/04/01 16:11:03;;;;;;;3.50;2.27;;;;;;;;;;5093600;28;20414;-77
2021/04/01 16:13:30;;;;;;;4.05;1.90;;;;;;;;;;5093374;28;20394;-77
2021/04/01 16:15:56;;;;;;;3.08;2.20;;;;;;;;;;5093760;28;20191;-77
2021/04/01 16:18:22;;;;;;;3.10;2.08;;;;;;;;;;5110545;28;20178;-77